Ohio City, Ohio
Current Conditions -  °F | °C
As of 6:12 AM on Friday 19 Dec 2014 (Local Time) from KAXV Reporting Station
Overcast Overcast  
Wind Chill: 28°   Ceiling: 2500
Heat Index: 28°   Visibility: 10mi
Dew Point: 27°   Wind: 3mph
Humidity: 93%   Direction: 290°WNW
Pressure: 30.24"   Gusts: NA
Location:  40.77°N, 84.62°W
Report Text: KAXV 191112Z AUTO 29003KT 10SM SCT012 OVC025 M02/M03 A3024 RMK AO2
Loading
Personal Weather Stations






























Interactive Weather Map New forecast layout! Learn more

10-Day Weather Forecast

Advertisements
Track Severe Weather on mobile